sensor_id;sensor_type;location;lat;lon;timestamp;P1;durP1;ratioP1;P2;durP2;ratioP2
46463;SDS011;32161;48.148;-1.554;2024-01-27T00:01:01;10.07;;;4.60;;
46463;SDS011;32161;48.148;-1.554;2024-01-27T00:03:29;12.02;;;4.65;;
46463;SDS011;32161;48.148;-1.554;2024-01-27T00:05:58;13.95;;;5.30;;
46463;SDS011;32161;48.148;-1.554;2024-01-27T00:08:25;11.90;;;5.40;;
46463;SDS011;32161;48.148;-1.554;2024-01-27T00:10:53;15.15;;;5.63;;
46463;SDS011;32161;48.148;-1.554;2024-01-27T00:13:20;14.93;;;5.60;;
46463;SDS011;32161;48.148;-1.554;2024-01-27T00:15:48;14.70;;;5.53;;
46463;SDS011;32161;48.148;-1.554;2024-01-27T00:18:16;16.30;;;4.88;;
46463;SDS011;32161;48.148;-1.554;2024-01-27T00:20:44;18.55;;;7.03;;
46463;SDS011;32161;48.148;-1.554;2024-01-27T00:23:13;17.58;;;7.88;;
46463;SDS011;32161;48.148;-1.554;2024-01-27T00:25:40;16.13;;;6.28;;
46463;SDS011;32161;48.148;-1.554;2024-01-27T00:28:08;12.73;;;5.78;;
46463;SDS011;32161;48.148;-1.554;2024-01-27T00:30:36;17.27;;;6.30;;
46463;SDS011;32161;48.148;-1.554;2024-01-27T00:33:04;17.33;;;5.97;;
46463;SDS011;32161;48.148;-1.554;2024-01-27T00:35:31;19.30;;;6.18;;
46463;SDS011;32161;48.148;-1.554;2024-01-27T00:37:59;13.27;;;5.53;;
46463;SDS011;32161;48.148;-1.554;2024-01-27T00:40:28;14.65;;;5.80;;
46463;SDS011;32161;48.148;-1.554;2024-01-27T00:42:55;15.70;;;5.57;;
46463;SDS011;32161;48.148;-1.554;2024-01-27T00:45:24;13.52;;;4.40;;
46463;SDS011;32161;48.148;-1.554;2024-01-27T00:47:52;14.63;;;5.68;;
46463;SDS011;32161;48.148;-1.554;2024-01-27T00:50:20;8.82;;;4.55;;
46463;SDS011;32161;48.148;-1.554;2024-01-27T00:52:47;14.98;;;4.75;;
46463;SDS011;32161;48.148;-1.554;2024-01-27T00:55:15;18.83;;;5.22;;
46463;SDS011;32161;48.148;-1.554;2024-01-27T00:57:44;11.23;;;4.57;;
46463;SDS011;32161;48.148;-1.554;2024-01-27T01:00:12;10.25;;;4.28;;
46463;SDS011;32161;48.148;-1.554;2024-01-27T01:02:41;12.40;;;5.18;;
46463;SDS011;32161;48.148;-1.554;2024-01-27T01:05:08;10.80;;;5.10;;
46463;SDS011;32161;48.148;-1.554;2024-01-27T01:07:36;12.45;;;5.50;;
46463;SDS011;32161;48.148;-1.554;2024-01-27T01:10:04;12.93;;;5.65;;
46463;SDS011;32161;48.148;-1.554;2024-01-27T01:12:33;16.75;;;5.80;;
46463;SDS011;32161;48.148;-1.554;2024-01-27T01:15:03;13.20;;;5.93;;
46463;SDS011;32161;48.148;-1.554;2024-01-27T01:17:32;17.50;;;5.93;;
46463;SDS011;32161;48.148;-1.554;2024-01-27T01:19:59;14.52;;;7.00;;
46463;SDS011;32161;48.148;-1.554;2024-01-27T01:22:27;17.38;;;6.18;;
46463;SDS011;32161;48.148;-1.554;2024-01-27T01:24:54;12.32;;;5.65;;
46463;SDS011;32161;48.148;-1.554;2024-01-27T01:27:22;11.50;;;5.90;;
46463;SDS011;32161;48.148;-1.554;2024-01-27T01:29:49;11.02;;;5.45;;
46463;SDS011;32161;48.148;-1.554;2024-01-27T01:32:18;13.32;;;5.45;;
46463;SDS011;32161;48.148;-1.554;2024-01-27T01:34:47;11.85;;;5.60;;
46463;SDS011;32161;48.148;-1.554;2024-01-27T01:37:15;14.15;;;5.90;;
46463;SDS011;32161;48.148;-1.554;2024-01-27T01:39:42;12.65;;;5.88;;
46463;SDS011;32161;48.148;-1.554;2024-01-27T01:42:10;18.77;;;6.10;;
46463;SDS011;32161;48.148;-1.554;2024-01-27T01:44:37;13.82;;;5.43;;
46463;SDS011;32161;48.148;-1.554;2024-01-27T01:47:05;16.88;;;5.90;;
46463;SDS011;32161;48.148;-1.554;2024-01-27T01:49:35;14.68;;;5.40;;
46463;SDS011;32161;48.148;-1.554;2024-01-27T01:52:04;16.00;;;6.13;;
46463;SDS011;32161;48.148;-1.554;2024-01-27T01:54:32;11.55;;;5.18;;
46463;SDS011;32161;48.148;-1.554;2024-01-27T01:57:00;14.40;;;6.40;;
46463;SDS011;32161;48.148;-1.554;2024-01-27T01:59:29;12.05;;;5.95;;
46463;SDS011;32161;48.148;-1.554;2024-01-27T02:01:57;14.65;;;5.68;;
46463;SDS011;32161;48.148;-1.554;2024-01-27T02:04:24;16.27;;;6.07;;
46463;SDS011;32161;48.148;-1.554;2024-01-27T02:06:53;15.60;;;5.80;;
46463;SDS011;32161;48.148;-1.554;2024-01-27T02:09:21;13.52;;;4.93;;
46463;SDS011;32161;48.148;-1.554;2024-01-27T02:11:48;18.85;;;5.50;;
46463;SDS011;32161;48.148;-1.554;2024-01-27T02:14:16;17.95;;;5.60;;
46463;SDS011;32161;48.148;-1.554;2024-01-27T02:16:44;13.98;;;5.28;;
46463;SDS011;32161;48.148;-1.554;2024-01-27T02:19:11;17.25;;;5.78;;
46463;SDS011;32161;48.148;-1.554;2024-01-27T02:21:39;6.93;;;4.85;;
46463;SDS011;32161;48.148;-1.554;2024-01-27T02:24:08;18.27;;;5.95;;
46463;SDS011;32161;48.148;-1.554;2024-01-27T02:26:36;18.33;;;5.72;;
46463;SDS011;32161;48.148;-1.554;2024-01-27T02:29:03;10.30;;;4.72;;
46463;SDS011;32161;48.148;-1.554;2024-01-27T02:31:31;16.13;;;6.75;;
46463;SDS011;32161;48.148;-1.554;2024-01-27T02:33:59;10.63;;;4.78;;
46463;SDS011;32161;48.148;-1.554;2024-01-27T02:36:26;11.20;;;4.82;;
46463;SDS011;32161;48.148;-1.554;2024-01-27T02:38:54;11.60;;;5.07;;
46463;SDS011;32161;48.148;-1.554;2024-01-27T02:41:23;18.08;;;5.38;;
46463;SDS011;32161;48.148;-1.554;2024-01-27T02:43:50;9.85;;;4.28;;
46463;SDS011;32161;48.148;-1.554;2024-01-27T02:46:18;12.02;;;4.85;;
46463;SDS011;32161;48.148;-1.554;2024-01-27T02:48:45;17.70;;;6.15;;
46463;SDS011;32161;48.148;-1.554;2024-01-27T02:51:13;12.27;;;4.78;;
46463;SDS011;32161;48.148;-1.554;2024-01-27T02:53:46;11.43;;;4.75;;
46463;SDS011;32161;48.148;-1.554;2024-01-27T02:56:15;9.25;;;4.80;;
46463;SDS011;32161;48.148;-1.554;2024-01-27T02:58:44;13.63;;;5.43;;
46463;SDS011;32161;48.148;-1.554;2024-01-27T03:01:12;14.70;;;5.68;;
46463;SDS011;32161;48.148;-1.554;2024-01-27T03:03:39;12.65;;;4.95;;
46463;SDS011;32161;48.148;-1.554;2024-01-27T03:06:07;10.55;;;4.40;;
46463;SDS011;32161;48.148;-1.554;2024-01-27T03:08:34;10.30;;;4.30;;
46463;SDS011;32161;48.148;-1.554;2024-01-27T03:11:02;12.20;;;5.05;;
46463;SDS011;32161;48.148;-1.554;2024-01-27T03:13:30;14.40;;;5.75;;
46463;SDS011;32161;48.148;-1.554;2024-01-27T03:15:59;11.88;;;4.93;;
46463;SDS011;32161;48.148;-1.554;2024-01-27T03:18:27;13.63;;;5.30;;
46463;SDS011;32161;48.148;-1.554;2024-01-27T03:20:54;14.00;;;4.45;;
46463;SDS011;32161;48.148;-1.554;2024-01-27T03:23:22;9.30;;;4.32;;
46463;SDS011;32161;48.148;-1.554;2024-01-27T03:25:49;11.13;;;4.68;;
46463;SDS011;32161;48.148;-1.554;2024-01-27T03:28:17;13.27;;;4.30;;
46463;SDS011;32161;48.148;-1.554;2024-01-27T03:30:44;9.50;;;4.43;;
46463;SDS011;32161;48.148;-1.554;2024-01-27T03:33:13;10.25;;;4.38;;
46463;SDS011;32161;48.148;-1.554;2024-01-27T03:35:41;14.65;;;4.97;;
46463;SDS011;32161;48.148;-1.554;2024-01-27T03:38:08;16.50;;;4.47;;
46463;SDS011;32161;48.148;-1.554;2024-01-27T03:40:36;10.15;;;4.90;;
46463;SDS011;32161;48.148;-1.554;2024-01-27T03:43:03;12.82;;;4.03;;
46463;SDS011;32161;48.148;-1.554;2024-01-27T03:45:30;10.50;;;3.35;;
46463;SDS011;32161;48.148;-1.554;2024-01-27T03:47:58;10.63;;;3.60;;
46463;SDS011;32161;48.148;-1.554;2024-01-27T03:50:26;8.95;;;3.78;;
46463;SDS011;32161;48.148;-1.554;2024-01-27T03:52:54;10.93;;;4.00;;
46463;SDS011;32161;48.148;-1.554;2024-01-27T03:55:22;7.95;;;4.28;;
46463;SDS011;32161;48.148;-1.554;2024-01-27T03:57:49;12.70;;;4.30;;
46463;SDS011;32161;48.148;-1.554;2024-01-27T04:00:17;9.88;;;3.80;;
46463;SDS011;32161;48.148;-1.554;2024-01-27T04:02:45;8.30;;;4.47;;
46463;SDS011;32161;48.148;-1.554;2024-01-27T04:05:12;7.45;;;3.42;;
46463;SDS011;32161;48.148;-1.554;2024-01-27T04:07:42;11.02;;;3.70;;
46463;SDS011;32161;48.148;-1.554;2024-01-27T04:10:10;8.82;;;3.97;;
46463;SDS011;32161;48.148;-1.554;2024-01-27T04:12:37;7.10;;;3.60;;
46463;SDS011;32161;48.148;-1.554;2024-01-27T04:15:05;10.23;;;3.60;;
46463;SDS011;32161;48.148;-1.554;2024-01-27T04:17:34;11.77;;;3.40;;
46463;SDS011;32161;48.148;-1.554;2024-01-27T04:20:01;15.63;;;4.00;;
46463;SDS011;32161;48.148;-1.554;2024-01-27T04:22:29;11.00;;;4.15;;
46463;SDS011;32161;48.148;-1.554;2024-01-27T04:24:58;9.05;;;4.40;;
46463;SDS011;32161;48.148;-1.554;2024-01-27T04:27:26;12.23;;;4.03;;
46463;SDS011;32161;48.148;-1.554;2024-01-27T04:29:54;11.43;;;3.80;;
46463;SDS011;32161;48.148;-1.554;2024-01-27T04:32:22;9.88;;;4.00;;
46463;SDS011;32161;48.148;-1.554;2024-01-27T04:34:51;6.93;;;3.97;;
46463;SDS011;32161;48.148;-1.554;2024-01-27T04:37:19;8.52;;;3.20;;
46463;SDS011;32161;48.148;-1.554;2024-01-27T04:39:46;7.35;;;3.58;;
46463;SDS011;32161;48.148;-1.554;2024-01-27T04:42:15;8.75;;;3.10;;
46463;SDS011;32161;48.148;-1.554;2024-01-27T04:44:43;8.18;;;4.00;;
46463;SDS011;32161;48.148;-1.554;2024-01-27T04:47:10;9.52;;;3.55;;
46463;SDS011;32161;48.148;-1.554;2024-01-27T04:49:38;12.88;;;4.95;;
46463;SDS011;32161;48.148;-1.554;2024-01-27T04:52:06;8.00;;;3.42;;
46463;SDS011;32161;48.148;-1.554;2024-01-27T04:54:34;11.15;;;4.15;;
46463;SDS011;32161;48.148;-1.554;2024-01-27T04:57:02;16.27;;;4.40;;
46463;SDS011;32161;48.148;-1.554;2024-01-27T04:59:31;11.73;;;4.05;;
46463;SDS011;32161;48.148;-1.554;2024-01-27T05:01:59;12.50;;;4.88;;
46463;SDS011;32161;48.148;-1.554;2024-01-27T05:04:27;11.18;;;4.22;;
46463;SDS011;32161;48.148;-1.554;2024-01-27T05:06:54;9.10;;;3.80;;
46463;SDS011;32161;48.148;-1.554;2024-01-27T05:09:22;10.65;;;4.22;;
46463;SDS011;32161;48.148;-1.554;2024-01-27T05:11:49;10.60;;;4.28;;
46463;SDS011;32161;48.148;-1.554;2024-01-27T05:14:18;15.52;;;4.45;;
46463;SDS011;32161;48.148;-1.554;2024-01-27T05:16:48;12.00;;;4.47;;
46463;SDS011;32161;48.148;-1.554;2024-01-27T05:19:15;9.00;;;3.40;;
46463;SDS011;32161;48.148;-1.554;2024-01-27T05:21:43;8.13;;;3.63;;
46463;SDS011;32161;48.148;-1.554;2024-01-27T05:24:10;15.45;;;3.42;;
46463;SDS011;32161;48.148;-1.554;2024-01-27T05:26:38;7.43;;;3.47;;
46463;SDS011;32161;48.148;-1.554;2024-01-27T05:29:05;11.07;;;3.78;;
46463;SDS011;32161;48.148;-1.554;2024-01-27T05:31:33;10.25;;;3.53;;
46463;SDS011;32161;48.148;-1.554;2024-01-27T05:34:02;10.38;;;2.85;;
46463;SDS011;32161;48.148;-1.554;2024-01-27T05:36:30;8.85;;;3.17;;
46463;SDS011;32161;48.148;-1.554;2024-01-27T05:38:58;13.55;;;3.22;;
46463;SDS011;32161;48.148;-1.554;2024-01-27T05:41:28;6.68;;;2.72;;
46463;SDS011;32161;48.148;-1.554;2024-01-27T05:43:55;10.38;;;3.55;;
46463;SDS011;32161;48.148;-1.554;2024-01-27T05:46:23;14.45;;;3.50;;
46463;SDS011;32161;48.148;-1.554;2024-01-27T05:48:51;13.65;;;2.95;;
46463;SDS011;32161;48.148;-1.554;2024-01-27T05:51:24;11.07;;;3.30;;
46463;SDS011;32161;48.148;-1.554;2024-01-27T05:53:51;11.20;;;3.40;;
46463;SDS011;32161;48.148;-1.554;2024-01-27T05:56:19;9.43;;;3.05;;
46463;SDS011;32161;48.148;-1.554;2024-01-27T05:58:47;5.65;;;2.60;;
46463;SDS011;32161;48.148;-1.554;2024-01-27T06:01:17;8.90;;;2.20;;
46463;SDS011;32161;48.148;-1.554;2024-01-27T06:03:45;9.73;;;2.63;;
46463;SDS011;32161;48.148;-1.554;2024-01-27T06:06:12;13.38;;;2.42;;
46463;SDS011;32161;48.148;-1.554;2024-01-27T06:08:41;8.48;;;2.15;;
46463;SDS011;32161;48.148;-1.554;2024-01-27T06:11:09;9.43;;;2.30;;
46463;SDS011;32161;48.148;-1.554;2024-01-27T06:13:37;6.18;;;2.10;;
46463;SDS011;32161;48.148;-1.554;2024-01-27T06:16:08;12.95;;;2.67;;
46463;SDS011;32161;48.148;-1.554;2024-01-27T06:18:36;5.03;;;2.00;;
46463;SDS011;32161;48.148;-1.554;2024-01-27T06:21:04;8.00;;;2.35;;
46463;SDS011;32161;48.148;-1.554;2024-01-27T06:23:32;13.18;;;2.58;;
46463;SDS011;32161;48.148;-1.554;2024-01-27T06:26:06;4.22;;;1.75;;
46463;SDS011;32161;48.148;-1.554;2024-01-27T06:28:34;12.88;;;2.20;;
46463;SDS011;32161;48.148;-1.554;2024-01-27T06:31:02;13.93;;;2.15;;
46463;SDS011;32161;48.148;-1.554;2024-01-27T06:33:31;10.98;;;2.15;;
46463;SDS011;32161;48.148;-1.554;2024-01-27T06:35:59;15.93;;;2.20;;
46463;SDS011;32161;48.148;-1.554;2024-01-27T06:38:26;11.57;;;2.38;;
46463;SDS011;32161;48.148;-1.554;2024-01-27T06:40:53;13.43;;;2.45;;
46463;SDS011;32161;48.148;-1.554;2024-01-27T06:43:22;15.52;;;3.30;;
46463;SDS011;32161;48.148;-1.554;2024-01-27T06:45:50;15.75;;;2.85;;
46463;SDS011;32161;48.148;-1.554;2024-01-27T06:48:17;10.68;;;2.08;;
46463;SDS011;32161;48.148;-1.554;2024-01-27T06:50:45;9.50;;;1.90;;
46463;SDS011;32161;48.148;-1.554;2024-01-27T06:53:11;11.10;;;2.03;;
46463;SDS011;32161;48.148;-1.554;2024-01-27T06:55:39;10.45;;;2.22;;
46463;SDS011;32161;48.148;-1.554;2024-01-27T06:58:07;8.32;;;1.73;;
46463;SDS011;32161;48.148;-1.554;2024-01-27T07:00:36;9.77;;;2.60;;
46463;SDS011;32161;48.148;-1.554;2024-01-27T07:03:04;8.63;;;1.77;;
46463;SDS011;32161;48.148;-1.554;2024-01-27T07:05:31;7.82;;;1.70;;
46463;SDS011;32161;48.148;-1.554;2024-01-27T07:08:04;6.97;;;1.92;;
46463;SDS011;32161;48.148;-1.554;2024-01-27T07:10:33;6.88;;;1.90;;
46463;SDS011;32161;48.148;-1.554;2024-01-27T07:13:01;12.18;;;1.92;;
46463;SDS011;32161;48.148;-1.554;2024-01-27T07:15:28;13.55;;;2.22;;
46463;SDS011;32161;48.148;-1.554;2024-01-27T07:17:57;9.88;;;1.67;;
46463;SDS011;32161;48.148;-1.554;2024-01-27T07:20:25;8.30;;;2.15;;
46463;SDS011;32161;48.148;-1.554;2024-01-27T07:22:54;17.40;;;3.55;;
46463;SDS011;32161;48.148;-1.554;2024-01-27T07:25:21;10.35;;;2.15;;
46463;SDS011;32161;48.148;-1.554;2024-01-27T07:27:49;6.93;;;1.92;;
46463;SDS011;32161;48.148;-1.554;2024-01-27T07:30:16;13.70;;;1.67;;
46463;SDS011;32161;48.148;-1.554;2024-01-27T07:32:44;7.18;;;2.08;;
46463;SDS011;32161;48.148;-1.554;2024-01-27T07:35:13;8.98;;;2.40;;
46463;SDS011;32161;48.148;-1.554;2024-01-27T07:37:41;5.70;;;1.95;;
46463;SDS011;32161;48.148;-1.554;2024-01-27T07:40:09;7.18;;;2.05;;
46463;SDS011;32161;48.148;-1.554;2024-01-27T07:42:38;7.40;;;1.85;;
46463;SDS011;32161;48.148;-1.554;2024-01-27T07:45:06;8.55;;;1.70;;
46463;SDS011;32161;48.148;-1.554;2024-01-27T07:47:34;10.02;;;2.50;;
46463;SDS011;32161;48.148;-1.554;2024-01-27T07:50:02;9.02;;;1.90;;
46463;SDS011;32161;48.148;-1.554;2024-01-27T07:52:31;10.73;;;2.65;;
46463;SDS011;32161;48.148;-1.554;2024-01-27T07:54:59;10.05;;;1.73;;
46463;SDS011;32161;48.148;-1.554;2024-01-27T07:57:27;7.35;;;1.98;;
46463;SDS011;32161;48.148;-1.554;2024-01-27T07:59:55;6.97;;;2.08;;
46463;SDS011;32161;48.148;-1.554;2024-01-27T08:02:23;5.70;;;3.03;;
46463;SDS011;32161;48.148;-1.554;2024-01-27T08:04:51;6.45;;;2.35;;
46463;SDS011;32161;48.148;-1.554;2024-01-27T08:07:19;7.78;;;2.47;;
46463;SDS011;32161;48.148;-1.554;2024-01-27T08:09:47;5.47;;;2.33;;
46463;SDS011;32161;48.148;-1.554;2024-01-27T08:12:15;9.25;;;2.50;;
46463;SDS011;32161;48.148;-1.554;2024-01-27T08:14:43;17.17;;;3.88;;
46463;SDS011;32161;48.148;-1.554;2024-01-27T08:17:10;9.27;;;2.78;;
46463;SDS011;32161;48.148;-1.554;2024-01-27T08:19:38;13.77;;;3.00;;
46463;SDS011;32161;48.148;-1.554;2024-01-27T08:22:06;13.48;;;3.10;;
46463;SDS011;32161;48.148;-1.554;2024-01-27T08:24:34;14.07;;;3.72;;
46463;SDS011;32161;48.148;-1.554;2024-01-27T08:27:03;18.10;;;3.33;;
46463;SDS011;32161;48.148;-1.554;2024-01-27T08:29:31;9.25;;;3.28;;
46463;SDS011;32161;48.148;-1.554;2024-01-27T08:31:59;13.75;;;2.33;;
46463;SDS011;32161;48.148;-1.554;2024-01-27T08:34:27;10.75;;;3.45;;
46463;SDS011;32161;48.148;-1.554;2024-01-27T08:37:01;6.97;;;2.80;;
46463;SDS011;32161;48.148;-1.554;2024-01-27T08:39:40;13.10;;;3.50;;
46463;SDS011;32161;48.148;-1.554;2024-01-27T08:42:09;9.40;;;3.38;;
46463;SDS011;32161;48.148;-1.554;2024-01-27T08:44:36;14.82;;;3.15;;
46463;SDS011;32161;48.148;-1.554;2024-01-27T08:47:04;13.70;;;3.08;;
46463;SDS011;32161;48.148;-1.554;2024-01-27T08:49:32;8.48;;;2.88;;
46463;SDS011;32161;48.148;-1.554;2024-01-27T08:52:00;12.90;;;2.45;;
46463;SDS011;32161;48.148;-1.554;2024-01-27T08:54:27;10.40;;;2.65;;
46463;SDS011;32161;48.148;-1.554;2024-01-27T08:56:55;16.73;;;3.20;;
46463;SDS011;32161;48.148;-1.554;2024-01-27T08:59:24;10.90;;;2.50;;
46463;SDS011;32161;48.148;-1.554;2024-01-27T09:01:51;14.65;;;3.47;;
46463;SDS011;32161;48.148;-1.554;2024-01-27T09:04:19;11.60;;;3.50;;
46463;SDS011;32161;48.148;-1.554;2024-01-27T09:06:46;12.57;;;4.88;;
46463;SDS011;32161;48.148;-1.554;2024-01-27T09:09:14;10.23;;;2.97;;
46463;SDS011;32161;48.148;-1.554;2024-01-27T09:11:42;12.80;;;2.80;;
46463;SDS011;32161;48.148;-1.554;2024-01-27T09:14:11;9.63;;;2.20;;
46463;SDS011;32161;48.148;-1.554;2024-01-27T09:16:40;7.30;;;2.38;;
46463;SDS011;32161;48.148;-1.554;2024-01-27T09:19:07;6.95;;;2.30;;
46463;SDS011;32161;48.148;-1.554;2024-01-27T09:21:35;10.00;;;3.13;;
46463;SDS011;32161;48.148;-1.554;2024-01-27T09:24:03;17.25;;;3.22;;
46463;SDS011;32161;48.148;-1.554;2024-01-27T09:26:31;13.13;;;3.55;;
46463;SDS011;32161;48.148;-1.554;2024-01-27T09:28:58;13.23;;;3.30;;
46463;SDS011;32161;48.148;-1.554;2024-01-27T09:31:26;12.50;;;3.50;;
46463;SDS011;32161;48.148;-1.554;2024-01-27T09:33:55;12.43;;;3.10;;
46463;SDS011;32161;48.148;-1.554;2024-01-27T09:36:23;13.93;;;4.03;;
46463;SDS011;32161;48.148;-1.554;2024-01-27T09:38:51;10.57;;;3.90;;
46463;SDS011;32161;48.148;-1.554;2024-01-27T09:41:19;10.52;;;3.05;;
46463;SDS011;32161;48.148;-1.554;2024-01-27T09:43:47;12.30;;;2.60;;
46463;SDS011;32161;48.148;-1.554;2024-01-27T09:46:15;10.10;;;2.53;;
46463;SDS011;32161;48.148;-1.554;2024-01-27T09:48:43;10.93;;;3.10;;
46463;SDS011;32161;48.148;-1.554;2024-01-27T09:51:13;9.95;;;3.00;;
46463;SDS011;32161;48.148;-1.554;2024-01-27T09:53:41;9.40;;;3.22;;
46463;SDS011;32161;48.148;-1.554;2024-01-27T09:56:09;10.68;;;3.20;;
46463;SDS011;32161;48.148;-1.554;2024-01-27T09:58:43;9.38;;;2.30;;
46463;SDS011;32161;48.148;-1.554;2024-01-27T10:01:11;16.70;;;3.30;;
46463;SDS011;32161;48.148;-1.554;2024-01-27T10:03:41;10.32;;;2.15;;
46463;SDS011;32161;48.148;-1.554;2024-01-27T10:06:09;13.88;;;3.38;;
46463;SDS011;32161;48.148;-1.554;2024-01-27T10:08:39;9.23;;;3.05;;
46463;SDS011;32161;48.148;-1.554;2024-01-27T10:11:07;11.43;;;3.40;;
46463;SDS011;32161;48.148;-1.554;2024-01-27T10:13:35;7.97;;;3.45;;
46463;SDS011;32161;48.148;-1.554;2024-01-27T10:16:05;6.32;;;3.72;;
46463;SDS011;32161;48.148;-1.554;2024-01-27T10:18:35;11.70;;;3.10;;
46463;SDS011;32161;48.148;-1.554;2024-01-27T10:21:11;18.42;;;3.80;;
46463;SDS011;32161;48.148;-1.554;2024-01-27T10:23:41;9.40;;;3.03;;
46463;SDS011;32161;48.148;-1.554;2024-01-27T10:26:08;16.52;;;2.72;;
46463;SDS011;32161;48.148;-1.554;2024-01-27T10:28:36;5.13;;;2.88;;
46463;SDS011;32161;48.148;-1.554;2024-01-27T10:31:10;10.63;;;2.83;;
46463;SDS011;32161;48.148;-1.554;2024-01-27T10:33:38;15.35;;;3.22;;
46463;SDS011;32161;48.148;-1.554;2024-01-27T10:36:06;11.60;;;2.63;;
46463;SDS011;32161;48.148;-1.554;2024-01-27T10:38:34;4.50;;;2.60;;
46463;SDS011;32161;48.148;-1.554;2024-01-27T10:41:04;12.73;;;2.85;;
46463;SDS011;32161;48.148;-1.554;2024-01-27T10:43:36;11.15;;;2.67;;
46463;SDS011;32161;48.148;-1.554;2024-01-27T10:46:05;8.68;;;2.17;;
46463;SDS011;32161;48.148;-1.554;2024-01-27T10:48:34;14.23;;;3.10;;
46463;SDS011;32161;48.148;-1.554;2024-01-27T10:51:03;9.93;;;3.15;;
46463;SDS011;32161;48.148;-1.554;2024-01-27T10:53:36;8.20;;;2.40;;
46463;SDS011;32161;48.148;-1.554;2024-01-27T10:56:06;14.45;;;2.78;;
46463;SDS011;32161;48.148;-1.554;2024-01-27T10:58:34;13.18;;;2.58;;
46463;SDS011;32161;48.148;-1.554;2024-01-27T11:01:06;13.55;;;2.50;;
46463;SDS011;32161;48.148;-1.554;2024-01-27T11:03:37;15.73;;;3.65;;
46463;SDS011;32161;48.148;-1.554;2024-01-27T11:06:06;10.13;;;2.38;;
46463;SDS011;32161;48.148;-1.554;2024-01-27T11:08:34;8.80;;;2.53;;
46463;SDS011;32161;48.148;-1.554;2024-01-27T11:11:02;7.70;;;2.72;;
46463;SDS011;32161;48.148;-1.554;2024-01-27T11:13:32;13.60;;;3.47;;
46463;SDS011;32161;48.148;-1.554;2024-01-27T11:16:00;5.13;;;2.05;;
46463;SDS011;32161;48.148;-1.554;2024-01-27T11:18:28;9.80;;;2.03;;
46463;SDS011;32161;48.148;-1.554;2024-01-27T11:20:57;13.60;;;2.85;;
46463;SDS011;32161;48.148;-1.554;2024-01-27T11:23:31;9.20;;;2.63;;
46463;SDS011;32161;48.148;-1.554;2024-01-27T11:26:04;8.27;;;2.90;;
46463;SDS011;32161;48.148;-1.554;2024-01-27T11:28:33;7.30;;;2.28;;
46463;SDS011;32161;48.148;-1.554;2024-01-27T11:31:05;7.30;;;2.70;;
46463;SDS011;32161;48.148;-1.554;2024-01-27T11:33:40;11.52;;;2.13;;
46463;SDS011;32161;48.148;-1.554;2024-01-27T11:36:17;10.65;;;2.53;;
46463;SDS011;32161;48.148;-1.554;2024-01-27T11:38:47;7.75;;;2.15;;
46463;SDS011;32161;48.148;-1.554;2024-01-27T11:41:25;9.85;;;2.30;;
46463;SDS011;32161;48.148;-1.554;2024-01-27T11:43:55;13.15;;;3.35;;
46463;SDS011;32161;48.148;-1.554;2024-01-27T11:46:26;9.30;;;2.75;;
46463;SDS011;32161;48.148;-1.554;2024-01-27T11:48:54;11.43;;;2.72;;
46463;SDS011;32161;48.148;-1.554;2024-01-27T11:51:22;5.25;;;1.75;;
46463;SDS011;32161;48.148;-1.554;2024-01-27T11:53:51;7.22;;;2.20;;
46463;SDS011;32161;48.148;-1.554;2024-01-27T11:56:18;8.80;;;2.13;;
46463;SDS011;32161;48.148;-1.554;2024-01-27T11:58:46;12.32;;;2.47;;
46463;SDS011;32161;48.148;-1.554;2024-01-27T12:01:16;6.97;;;2.40;;
46463;SDS011;32161;48.148;-1.554;2024-01-27T12:03:43;6.30;;;2.17;;
46463;SDS011;32161;48.148;-1.554;2024-01-27T12:06:11;9.43;;;2.00;;
46463;SDS011;32161;48.148;-1.554;2024-01-27T12:08:40;10.20;;;2.35;;
46463;SDS011;32161;48.148;-1.554;2024-01-27T12:11:12;8.50;;;2.60;;
46463;SDS011;32161;48.148;-1.554;2024-01-27T12:13:39;6.32;;;2.20;;
46463;SDS011;32161;48.148;-1.554;2024-01-27T12:16:07;6.40;;;2.28;;
46463;SDS011;32161;48.148;-1.554;2024-01-27T12:18:36;11.27;;;2.53;;
46463;SDS011;32161;48.148;-1.554;2024-01-27T12:21:04;7.60;;;2.45;;
46463;SDS011;32161;48.148;-1.554;2024-01-27T12:23:31;9.63;;;2.72;;
46463;SDS011;32161;48.148;-1.554;2024-01-27T12:25:59;9.50;;;3.70;;
46463;SDS011;32161;48.148;-1.554;2024-01-27T12:28:27;11.60;;;4.47;;
46463;SDS011;32161;48.148;-1.554;2024-01-27T12:30:54;12.40;;;2.78;;
46463;SDS011;32161;48.148;-1.554;2024-01-27T12:33:22;7.82;;;2.80;;
46463;SDS011;32161;48.148;-1.554;2024-01-27T12:35:52;5.82;;;2.45;;
46463;SDS011;32161;48.148;-1.554;2024-01-27T12:38:20;7.43;;;2.55;;
46463;SDS011;32161;48.148;-1.554;2024-01-27T12:40:49;6.32;;;2.10;;
46463;SDS011;32161;48.148;-1.554;2024-01-27T12:43:16;9.55;;;3.40;;
46463;SDS011;32161;48.148;-1.554;2024-01-27T12:45:44;5.38;;;2.28;;
46463;SDS011;32161;48.148;-1.554;2024-01-27T12:48:12;7.10;;;2.70;;
46463;SDS011;32161;48.148;-1.554;2024-01-27T12:50:39;7.15;;;2.72;;
46463;SDS011;32161;48.148;-1.554;2024-01-27T12:53:08;9.23;;;2.70;;
46463;SDS011;32161;48.148;-1.554;2024-01-27T12:55:36;9.95;;;2.17;;
46463;SDS011;32161;48.148;-1.554;2024-01-27T12:58:03;6.63;;;2.08;;
46463;SDS011;32161;48.148;-1.554;2024-01-27T13:00:31;6.95;;;2.20;;
46463;SDS011;32161;48.148;-1.554;2024-01-27T13:02:58;11.30;;;2.42;;
46463;SDS011;32161;48.148;-1.554;2024-01-27T13:05:26;6.63;;;1.88;;
46463;SDS011;32161;48.148;-1.554;2024-01-27T13:07:54;8.57;;;2.20;;
46463;SDS011;32161;48.148;-1.554;2024-01-27T13:10:23;8.15;;;1.90;;
46463;SDS011;32161;48.148;-1.554;2024-01-27T13:12:51;8.25;;;2.10;;
46463;SDS011;32161;48.148;-1.554;2024-01-27T13:15:18;7.80;;;1.77;;
46463;SDS011;32161;48.148;-1.554;2024-01-27T13:17:47;8.57;;;1.92;;
46463;SDS011;32161;48.148;-1.554;2024-01-27T13:20:14;6.07;;;2.08;;
46463;SDS011;32161;48.148;-1.554;2024-01-27T13:22:43;9.38;;;2.30;;
46463;SDS011;32161;48.148;-1.554;2024-01-27T13:25:11;4.93;;;1.77;;
46463;SDS011;32161;48.148;-1.554;2024-01-27T13:27:40;9.00;;;2.38;;
46463;SDS011;32161;48.148;-1.554;2024-01-27T13:30:08;7.07;;;2.28;;
46463;SDS011;32161;48.148;-1.554;2024-01-27T13:32:36;10.48;;;2.25;;
46463;SDS011;32161;48.148;-1.554;2024-01-27T13:35:05;7.80;;;2.13;;
46463;SDS011;32161;48.148;-1.554;2024-01-27T13:37:34;5.05;;;2.10;;
46463;SDS011;32161;48.148;-1.554;2024-01-27T13:40:02;7.20;;;2.20;;
46463;SDS011;32161;48.148;-1.554;2024-01-27T13:42:32;5.22;;;1.98;;
46463;SDS011;32161;48.148;-1.554;2024-01-27T13:45:01;6.28;;;1.80;;
46463;SDS011;32161;48.148;-1.554;2024-01-27T13:47:30;10.73;;;2.13;;
46463;SDS011;32161;48.148;-1.554;2024-01-27T13:49:58;5.10;;;1.75;;
46463;SDS011;32161;48.148;-1.554;2024-01-27T13:52:25;6.28;;;2.30;;
46463;SDS011;32161;48.148;-1.554;2024-01-27T13:54:54;7.57;;;2.33;;
46463;SDS011;32161;48.148;-1.554;2024-01-27T13:57:21;11.25;;;2.22;;
46463;SDS011;32161;48.148;-1.554;2024-01-27T13:59:49;4.13;;;1.73;;
46463;SDS011;32161;48.148;-1.554;2024-01-27T14:02:18;5.07;;;1.88;;
46463;SDS011;32161;48.148;-1.554;2024-01-27T14:04:46;7.35;;;2.08;;
46463;SDS011;32161;48.148;-1.554;2024-01-27T14:07:13;4.65;;;2.00;;
46463;SDS011;32161;48.148;-1.554;2024-01-27T14:09:43;5.90;;;1.75;;
46463;SDS011;32161;48.148;-1.554;2024-01-27T14:12:10;10.32;;;2.03;;
46463;SDS011;32161;48.148;-1.554;2024-01-27T14:14:38;5.15;;;1.92;;
46463;SDS011;32161;48.148;-1.554;2024-01-27T14:17:07;7.88;;;2.40;;
46463;SDS011;32161;48.148;-1.554;2024-01-27T14:19:36;7.10;;;2.63;;
46463;SDS011;32161;48.148;-1.554;2024-01-27T14:22:04;7.57;;;2.30;;
46463;SDS011;32161;48.148;-1.554;2024-01-27T14:24:31;9.75;;;2.22;;
46463;SDS011;32161;48.148;-1.554;2024-01-27T14:26:59;7.43;;;2.10;;
46463;SDS011;32161;48.148;-1.554;2024-01-27T14:29:27;11.63;;;2.20;;
46463;SDS011;32161;48.148;-1.554;2024-01-27T14:31:54;9.20;;;2.45;;